sensor_id;sensor_type;location;lat;lon;timestamp;pressure;altitude;pressure_sealevel;temperature;humidity
26865;BME280;40618;51.166;10.322;2023-03-03T00:01:24;97899.97;;;-0.08;72.82
26865;BME280;40618;51.166;10.322;2023-03-03T00:03:50;97886.47;;;-0.05;72.54
26865;BME280;40618;51.166;10.322;2023-03-03T00:06:17;97889.00;;;-0.05;72.71
26865;BME280;40618;51.166;10.322;2023-03-03T00:08:42;97889.88;;;-0.03;73.20
26865;BME280;40618;51.166;10.322;2023-03-03T00:11:09;97883.13;;;-0.03;73.33
26865;BME280;40618;51.166;10.322;2023-03-03T00:13:50;97896.72;;;-0.01;73.00
26865;BME280;40618;51.166;10.322;2023-03-03T00:16:37;97890.78;;;-0.01;73.03
26865;BME280;40618;51.166;10.322;2023-03-03T00:19:11;97897.50;;;-0.03;73.01
26865;BME280;40618;51.166;10.322;2023-03-03T00:21:44;97897.47;;;-0.06;73.13
26865;BME280;40618;51.166;10.322;2023-03-03T00:24:21;97894.94;;;-0.05;73.43
26865;BME280;40618;51.166;10.322;2023-03-03T00:27:01;97895.75;;;-0.06;73.32
26865;BME280;40618;51.166;10.322;2023-03-03T00:29:46;97899.16;;;-0.07;73.19
26865;BME280;40618;51.166;10.322;2023-03-03T00:32:25;97909.28;;;-0.08;73.04
26865;BME280;40618;51.166;10.322;2023-03-03T00:35:00;97904.16;;;-0.11;73.43
26865;BME280;40618;51.166;10.322;2023-03-03T00:38:13;97902.50;;;-0.09;73.75
26865;BME280;40618;51.166;10.322;2023-03-03T00:40:42;97900.72;;;-0.13;73.20
26865;BME280;40618;51.166;10.322;2023-03-03T00:43:21;97903.16;;;-0.18;73.36
26865;BME280;40618;51.166;10.322;2023-03-03T00:45:51;97901.47;;;-0.19;73.72
26865;BME280;40618;51.166;10.322;2023-03-03T00:51:01;97911.59;;;-0.21;73.83
26865;BME280;40618;51.166;10.322;2023-03-03T00:53:55;97904.72;;;-0.25;73.84
26865;BME280;40618;51.166;10.322;2023-03-03T00:56:22;97908.16;;;-0.24;73.65
26865;BME280;40618;51.166;10.322;2023-03-03T00:58:48;97903.94;;;-0.22;73.58
26865;BME280;40618;51.166;10.322;2023-03-03T01:01:16;97903.84;;;-0.27;73.78
26865;BME280;40618;51.166;10.322;2023-03-03T01:03:42;97893.66;;;-0.28;73.88
26865;BME280;40618;51.166;10.322;2023-03-03T01:06:08;97892.72;;;-0.32;73.86
26865;BME280;40618;51.166;10.322;2023-03-03T01:08:34;97887.66;;;-0.30;74.08
26865;BME280;40618;51.166;10.322;2023-03-03T01:11:13;97891.09;;;-0.28;73.84
26865;BME280;40618;51.166;10.322;2023-03-03T01:13:47;97893.66;;;-0.28;74.04
26865;BME280;40618;51.166;10.322;2023-03-03T01:16:15;97897.91;;;-0.27;74.24
26865;BME280;40618;51.166;10.322;2023-03-03T01:18:41;97896.19;;;-0.28;74.35
26865;BME280;40618;51.166;10.322;2023-03-03T01:21:08;97910.50;;;-0.33;74.48
26865;BME280;40618;51.166;10.322;2023-03-03T01:23:35;97898.63;;;-0.33;74.42
26865;BME280;40618;51.166;10.322;2023-03-03T01:26:02;97894.41;;;-0.32;74.79
26865;BME280;40618;51.166;10.322;2023-03-03T01:28:28;97901.09;;;-0.36;74.35
26865;BME280;40618;51.166;10.322;2023-03-03T01:30:59;97910.41;;;-0.38;74.22
26865;BME280;40618;51.166;10.322;2023-03-03T01:33:26;97913.00;;;-0.37;74.28
26865;BME280;40618;51.166;10.322;2023-03-03T01:35:52;97903.59;;;-0.39;74.54
26865;BME280;40618;51.166;10.322;2023-03-03T01:38:17;97904.50;;;-0.36;74.59
26865;BME280;40618;51.166;10.322;2023-03-03T01:40:51;97899.50;;;-0.32;74.31
26865;BME280;40618;51.166;10.322;2023-03-03T01:43:21;97901.13;;;-0.35;74.71
26865;BME280;40618;51.166;10.322;2023-03-03T01:48:21;97905.34;;;-0.37;74.83
26865;BME280;40618;51.166;10.322;2023-03-03T01:50:57;97915.59;;;-0.33;74.43
26865;BME280;40618;51.166;10.322;2023-03-03T01:53:35;97916.22;;;-0.44;74.40
26865;BME280;40618;51.166;10.322;2023-03-03T01:56:06;97913.56;;;-0.50;74.59
26865;BME280;40618;51.166;10.322;2023-03-03T01:58:36;97902.47;;;-0.52;74.56
26865;BME280;40618;51.166;10.322;2023-03-03T02:01:12;97903.38;;;-0.50;74.57
26865;BME280;40618;51.166;10.322;2023-03-03T02:03:42;97903.44;;;-0.47;74.81
26865;BME280;40618;51.166;10.322;2023-03-03T02:06:12;97908.44;;;-0.52;74.63
26865;BME280;40618;51.166;10.322;2023-03-03T02:11:50;97901.59;;;-0.54;74.65
26865;BME280;40618;51.166;10.322;2023-03-03T02:14:18;97891.41;;;-0.56;74.86
26865;BME280;40618;51.166;10.322;2023-03-03T02:16:43;97897.28;;;-0.58;74.80
26865;BME280;40618;51.166;10.322;2023-03-03T02:19:29;97890.47;;;-0.59;74.68
26865;BME280;40618;51.166;10.322;2023-03-03T02:22:02;97893.06;;;-0.56;74.99
26865;BME280;40618;51.166;10.322;2023-03-03T02:24:34;97893.97;;;-0.54;75.10
26865;BME280;40618;51.166;10.322;2023-03-03T02:27:25;97896.50;;;-0.54;74.94
26865;BME280;40618;51.166;10.322;2023-03-03T02:29:53;97889.75;;;-0.52;75.22
26865;BME280;40618;51.166;10.322;2023-03-03T02:32:18;97894.03;;;-0.51;75.05
26865;BME280;40618;51.166;10.322;2023-03-03T02:34:49;97877.94;;;-0.50;75.22
26865;BME280;40618;51.166;10.322;2023-03-03T02:37:17;97883.03;;;-0.50;74.81
26865;BME280;40618;51.166;10.322;2023-03-03T02:39:44;97880.44;;;-0.53;74.89
26865;BME280;40618;51.166;10.322;2023-03-03T02:42:22;97892.25;;;-0.54;74.86
26865;BME280;40618;51.166;10.322;2023-03-03T02:44:53;97891.41;;;-0.54;75.01
26865;BME280;40618;51.166;10.322;2023-03-03T02:47:19;97893.97;;;-0.54;75.18
26865;BME280;40618;51.166;10.322;2023-03-03T02:49:44;97901.53;;;-0.57;75.00
26865;BME280;40618;51.166;10.322;2023-03-03T02:52:10;97900.63;;;-0.59;75.20
26865;BME280;40618;51.166;10.322;2023-03-03T02:54:39;97899.63;;;-0.66;74.69
26865;BME280;40618;51.166;10.322;2023-03-03T02:57:05;97894.53;;;-0.68;75.25
26865;BME280;40618;51.166;10.322;2023-03-03T02:59:31;97906.44;;;-0.65;75.53
26865;BME280;40618;51.166;10.322;2023-03-03T03:01:57;97898.81;;;-0.65;75.16
26865;BME280;40618;51.166;10.322;2023-03-03T03:04:24;97897.09;;;-0.66;75.54
26865;BME280;40618;51.166;10.322;2023-03-03T03:06:51;97893.75;;;-0.63;75.24
26865;BME280;40618;51.166;10.322;2023-03-03T03:09:21;97898.06;;;-0.61;74.94
26865;BME280;40618;51.166;10.322;2023-03-03T03:11:47;97888.72;;;-0.60;75.44
26865;BME280;40618;51.166;10.322;2023-03-03T03:14:13;97899.81;;;-0.58;75.32
26865;BME280;40618;51.166;10.322;2023-03-03T03:16:40;97900.56;;;-0.62;75.24
26865;BME280;40618;51.166;10.322;2023-03-03T03:19:06;97910.72;;;-0.64;75.44
26865;BME280;40618;51.166;10.322;2023-03-03T03:21:32;97908.16;;;-0.65;75.46
26865;BME280;40618;51.166;10.322;2023-03-03T03:23:59;97911.56;;;-0.63;75.68
26865;BME280;40618;51.166;10.322;2023-03-03T03:26:24;97924.34;;;-0.60;75.48
26865;BME280;40618;51.166;10.322;2023-03-03T03:28:50;97918.41;;;-0.61;75.43
26865;BME280;40618;51.166;10.322;2023-03-03T03:31:17;97912.44;;;-0.63;75.55
26865;BME280;40618;51.166;10.322;2023-03-03T03:33:44;97912.38;;;-0.64;75.71
26865;BME280;40618;51.166;10.322;2023-03-03T03:36:10;97907.34;;;-0.63;75.94
26865;BME280;40618;51.166;10.322;2023-03-03T03:38:37;97904.81;;;-0.63;75.65
26865;BME280;40618;51.166;10.322;2023-03-03T03:41:04;97916.69;;;-0.62;75.41
26865;BME280;40618;51.166;10.322;2023-03-03T03:43:32;97911.47;;;-0.68;75.55
26865;BME280;40618;51.166;10.322;2023-03-03T03:45:58;97904.69;;;-0.68;75.66
26865;BME280;40618;51.166;10.322;2023-03-03T03:48:24;97909.72;;;-0.71;75.71
26865;BME280;40618;51.166;10.322;2023-03-03T03:50:50;97903.81;;;-0.70;76.00
26865;BME280;40618;51.166;10.322;2023-03-03T03:53:16;97890.25;;;-0.69;75.70
26865;BME280;40618;51.166;10.322;2023-03-03T03:55:43;97888.56;;;-0.70;75.59
26865;BME280;40618;51.166;10.322;2023-03-03T03:58:17;97891.94;;;-0.69;76.02
26865;BME280;40618;51.166;10.322;2023-03-03T04:00:44;97897.81;;;-0.72;75.79
26865;BME280;40618;51.166;10.322;2023-03-03T04:03:10;97903.75;;;-0.71;75.78
26865;BME280;40618;51.166;10.322;2023-03-03T04:05:38;97907.16;;;-0.72;75.80
26865;BME280;40618;51.166;10.322;2023-03-03T04:08:04;97908.69;;;-0.79;75.93
26865;BME280;40618;51.166;10.322;2023-03-03T04:10:30;97910.38;;;-0.79;75.76
26865;BME280;40618;51.166;10.322;2023-03-03T04:12:56;97906.13;;;-0.80;75.63
26865;BME280;40618;51.166;10.322;2023-03-03T04:15:22;97922.16;;;-0.83;75.98
26865;BME280;40618;51.166;10.322;2023-03-03T04:17:48;97914.50;;;-0.84;76.02
26865;BME280;40618;51.166;10.322;2023-03-03T04:20:14;97923.00;;;-0.82;75.80
26865;BME280;40618;51.166;10.322;2023-03-03T04:22:41;97922.81;;;-0.92;75.66
26865;BME280;40618;51.166;10.322;2023-03-03T04:25:08;97926.78;;;-1.03;75.90
26865;BME280;40618;51.166;10.322;2023-03-03T04:27:40;97920.59;;;-1.14;75.44
26865;BME280;40618;51.166;10.322;2023-03-03T04:30:08;97921.34;;;-1.18;75.73
26865;BME280;40618;51.166;10.322;2023-03-03T04:32:34;97927.97;;;-1.25;75.88
26865;BME280;40618;51.166;10.322;2023-03-03T04:35:00;97925.34;;;-1.28;76.06
26865;BME280;40618;51.166;10.322;2023-03-03T04:37:26;97934.78;;;-1.24;75.97
26865;BME280;40618;51.166;10.322;2023-03-03T04:39:52;97928.06;;;-1.21;76.13
26865;BME280;40618;51.166;10.322;2023-03-03T04:42:18;97925.56;;;-1.19;75.93
26865;BME280;40618;51.166;10.322;2023-03-03T04:44:43;97920.56;;;-1.16;76.15
26865;BME280;40618;51.166;10.322;2023-03-03T04:47:09;97912.22;;;-1.10;76.20
26865;BME280;40618;51.166;10.322;2023-03-03T04:49:35;97916.53;;;-1.08;76.36
26865;BME280;40618;51.166;10.322;2023-03-03T04:52:01;97915.78;;;-1.04;76.13
26865;BME280;40618;51.166;10.322;2023-03-03T04:54:26;97919.13;;;-1.05;76.10
26865;BME280;40618;51.166;10.322;2023-03-03T04:56:52;97930.16;;;-1.04;76.24
26865;BME280;40618;51.166;10.322;2023-03-03T04:59:18;97936.91;;;-1.05;76.35
26865;BME280;40618;51.166;10.322;2023-03-03T05:01:43;97931.88;;;-1.03;76.21
26865;BME280;40618;51.166;10.322;2023-03-03T05:04:10;97929.44;;;-0.98;76.09
26865;BME280;40618;51.166;10.322;2023-03-03T05:06:36;97931.16;;;-0.97;76.19
26865;BME280;40618;51.166;10.322;2023-03-03T05:09:02;97922.63;;;-1.01;76.45
26865;BME280;40618;51.166;10.322;2023-03-03T05:11:28;97926.00;;;-1.00;76.32
26865;BME280;40618;51.166;10.322;2023-03-03T05:13:53;97925.19;;;-0.99;76.03
26865;BME280;40618;51.166;10.322;2023-03-03T05:16:19;97933.66;;;-0.99;76.31
26865;BME280;40618;51.166;10.322;2023-03-03T05:18:45;97940.41;;;-1.01;76.20
26865;BME280;40618;51.166;10.322;2023-03-03T05:21:11;97934.44;;;-1.02;76.31
26865;BME280;40618;51.166;10.322;2023-03-03T05:23:37;97944.59;;;-1.03;76.13
26865;BME280;40618;51.166;10.322;2023-03-03T05:26:02;97946.91;;;-1.12;76.08
26865;BME280;40618;51.166;10.322;2023-03-03T05:28:28;97942.59;;;-1.15;76.36
26865;BME280;40618;51.166;10.322;2023-03-03T05:30:54;97953.59;;;-1.16;76.74
26865;BME280;40618;51.166;10.322;2023-03-03T05:33:20;97960.34;;;-1.16;76.51
26865;BME280;40618;51.166;10.322;2023-03-03T05:35:46;97953.38;;;-1.25;76.18
26865;BME280;40618;51.166;10.322;2023-03-03T05:38:11;97954.81;;;-1.35;76.23
26865;BME280;40618;51.166;10.322;2023-03-03T05:40:37;97956.34;;;-1.42;76.33
26865;BME280;40618;51.166;10.322;2023-03-03T05:43:03;97958.16;;;-1.38;76.77
26865;BME280;40618;51.166;10.322;2023-03-03T05:45:29;97953.19;;;-1.31;76.60
26865;BME280;40618;51.166;10.322;2023-03-03T05:47:55;97955.00;;;-1.27;76.73
26865;BME280;40618;51.166;10.322;2023-03-03T05:50:22;97961.84;;;-1.25;76.58
26865;BME280;40618;51.166;10.322;2023-03-03T05:52:49;97963.56;;;-1.24;76.51
26865;BME280;40618;51.166;10.322;2023-03-03T05:55:16;97959.41;;;-1.22;76.60
26865;BME280;40618;51.166;10.322;2023-03-03T05:57:42;97957.72;;;-1.21;76.80
26865;BME280;40618;51.166;10.322;2023-03-03T06:00:08;97950.94;;;-1.21;76.50
26865;BME280;40618;51.166;10.322;2023-03-03T06:02:34;97953.31;;;-1.28;76.52
26865;BME280;40618;51.166;10.322;2023-03-03T06:05:00;97961.75;;;-1.29;76.81
26865;BME280;40618;51.166;10.322;2023-03-03T06:07:26;97966.84;;;-1.28;76.73
26865;BME280;40618;51.166;10.322;2023-03-03T06:09:52;97967.66;;;-1.29;76.71
26865;BME280;40618;51.166;10.322;2023-03-03T06:12:18;97965.09;;;-1.30;76.79
26865;BME280;40618;51.166;10.322;2023-03-03T06:14:43;97968.56;;;-1.28;76.84
26865;BME280;40618;51.166;10.322;2023-03-03T06:17:09;97967.78;;;-1.26;76.70
26865;BME280;40618;51.166;10.322;2023-03-03T06:19:35;97961.00;;;-1.25;76.96
26865;BME280;40618;51.166;10.322;2023-03-03T06:22:01;97963.53;;;-1.25;76.56
26865;BME280;40618;51.166;10.322;2023-03-03T06:24:27;97973.66;;;-1.27;76.74
26865;BME280;40618;51.166;10.322;2023-03-03T06:26:55;97973.69;;;-1.25;76.97
26865;BME280;40618;51.166;10.322;2023-03-03T06:29:24;97983.91;;;-1.24;76.95
26865;BME280;40618;51.166;10.322;2023-03-03T06:31:50;97987.34;;;-1.22;76.87
26865;BME280;40618;51.166;10.322;2023-03-03T06:34:16;97989.81;;;-1.23;76.40
26865;BME280;40618;51.166;10.322;2023-03-03T06:36:43;97988.13;;;-1.24;76.57
26865;BME280;40618;51.166;10.322;2023-03-03T06:39:09;97992.38;;;-1.23;76.95
26865;BME280;40618;51.166;10.322;2023-03-03T06:41:36;97995.75;;;-1.24;76.90
26865;BME280;40618;51.166;10.322;2023-03-03T06:44:02;97999.19;;;-1.22;76.99
26865;BME280;40618;51.166;10.322;2023-03-03T06:46:28;98004.25;;;-1.22;76.82
26865;BME280;40618;51.166;10.322;2023-03-03T06:48:53;98002.63;;;-1.20;76.91
26865;BME280;40618;51.166;10.322;2023-03-03T06:51:23;98003.47;;;-1.20;76.72
26865;BME280;40618;51.166;10.322;2023-03-03T06:53:55;97998.41;;;-1.20;76.79
26865;BME280;40618;51.166;10.322;2023-03-03T06:56:25;97997.59;;;-1.18;77.00
26865;BME280;40618;51.166;10.322;2023-03-03T06:58:55;97990.03;;;-1.15;76.87
26865;BME280;40618;51.166;10.322;2023-03-03T07:01:22;97990.88;;;-1.15;76.85
26865;BME280;40618;51.166;10.322;2023-03-03T07:03:48;97994.09;;;-1.22;76.88
26865;BME280;40618;51.166;10.322;2023-03-03T07:06:32;97987.38;;;-1.20;76.84
26865;BME280;40618;51.166;10.322;2023-03-03T07:08:57;97992.44;;;-1.22;76.65
26865;BME280;40618;51.166;10.322;2023-03-03T07:11:23;97988.22;;;-1.20;77.07
26865;BME280;40618;51.166;10.322;2023-03-03T07:13:50;97997.63;;;-1.17;76.97
26865;BME280;40618;51.166;10.322;2023-03-03T07:16:18;97995.91;;;-1.18;76.86
26865;BME280;40618;51.166;10.322;2023-03-03T07:21:22;98011.88;;;-1.22;76.80
26865;BME280;40618;51.166;10.322;2023-03-03T07:23:57;98014.28;;;-1.28;76.88
26865;BME280;40618;51.166;10.322;2023-03-03T07:26:27;98016.69;;;-1.33;76.95
26865;BME280;40618;51.166;10.322;2023-03-03T07:31:53;98031.03;;;-1.35;76.96
26865;BME280;40618;51.166;10.322;2023-03-03T07:37:17;98034.09;;;-1.47;77.00
26865;BME280;40618;51.166;10.322;2023-03-03T07:39:52;98033.38;;;-1.43;76.92
26865;BME280;40618;51.166;10.322;2023-03-03T07:42:38;98035.91;;;-1.43;76.88
26865;BME280;40618;51.166;10.322;2023-03-03T07:45:22;98034.28;;;-1.41;77.33
26865;BME280;40618;51.166;10.322;2023-03-03T07:48:24;98030.13;;;-1.37;76.97
26865;BME280;40618;51.166;10.322;2023-03-03T07:50:56;98029.28;;;-1.38;76.90
26865;BME280;40618;51.166;10.322;2023-03-03T07:53:28;98026.00;;;-1.33;77.18
26865;BME280;40618;51.166;10.322;2023-03-03T07:55:59;98031.16;;;-1.30;77.39
26865;BME280;40618;51.166;10.322;2023-03-03T07:58:38;98040.56;;;-1.26;77.19
26865;BME280;40618;51.166;10.322;2023-03-03T08:04:28;98032.19;;;-1.24;76.82
26865;BME280;40618;51.166;10.322;2023-03-03T08:07:11;98053.41;;;-1.22;77.08
26865;BME280;40618;51.166;10.322;2023-03-03T08:12:40;98053.53;;;-1.17;77.24
26865;BME280;40618;51.166;10.322;2023-03-03T08:17:48;98061.91;;;-1.21;76.95
26865;BME280;40618;51.166;10.322;2023-03-03T08:22:59;98089.00;;;-1.22;77.34
26865;BME280;40618;51.166;10.322;2023-03-03T08:25:24;98086.16;;;-1.32;76.88
26865;BME280;40618;51.166;10.322;2023-03-03T08:27:50;98089.44;;;-1.37;76.92
26865;BME280;40618;51.166;10.322;2023-03-03T08:30:16;98086.06;;;-1.36;77.08
26865;BME280;40618;51.166;10.322;2023-03-03T08:32:41;98089.59;;;-1.30;77.40
26865;BME280;40618;51.166;10.322;2023-03-03T08:35:07;98077.06;;;-1.24;77.14
26865;BME280;40618;51.166;10.322;2023-03-03T08:37:33;98066.97;;;-1.21;77.07
26865;BME280;40618;51.166;10.322;2023-03-03T08:39:58;98062.72;;;-1.22;76.93
26865;BME280;40618;51.166;10.322;2023-03-03T08:42:24;98068.72;;;-1.20;77.29
26865;BME280;40618;51.166;10.322;2023-03-03T08:44:49;98079.75;;;-1.18;77.32
26865;BME280;40618;51.166;10.322;2023-03-03T08:47:15;98080.75;;;-1.13;77.38
26865;BME280;40618;51.166;10.322;2023-03-03T08:49:41;98092.72;;;-1.09;77.30
26865;BME280;40618;51.166;10.322;2023-03-03T08:52:06;98100.38;;;-1.07;77.17
26865;BME280;40618;51.166;10.322;2023-03-03T08:54:32;98084.16;;;-1.11;76.95
26865;BME280;40618;51.166;10.322;2023-03-03T08:56:57;98080.81;;;-1.10;77.22
26865;BME280;40618;51.166;10.322;2023-03-03T08:59:23;98083.34;;;-1.10;77.34
26865;BME280;40618;51.166;10.322;2023-03-03T09:01:49;98086.78;;;-1.09;77.34
26865;BME280;40618;51.166;10.322;2023-03-03T09:04:14;98089.31;;;-1.09;77.09
26865;BME280;40618;51.166;10.322;2023-03-03T09:06:40;98096.09;;;-1.08;77.17
26865;BME280;40618;51.166;10.322;2023-03-03T09:09:05;98091.94;;;-1.06;77.11
26865;BME280;40618;51.166;10.322;2023-03-03T09:11:32;98091.94;;;-1.06;77.38
26865;BME280;40618;51.166;10.322;2023-03-03T09:14:17;98088.66;;;-1.02;77.24
26865;BME280;40618;51.166;10.322;2023-03-03T09:16:51;98098.13;;;-0.96;77.24
26865;BME280;40618;51.166;10.322;2023-03-03T09:19:30;98094.75;;;-0.95;77.05
26865;BME280;40618;51.166;10.322;2023-03-03T09:22:10;98092.97;;;-0.99;77.19
26865;BME280;40618;51.166;10.322;2023-03-03T09:24:49;98093.28;;;-1.19;76.55
26865;BME280;40618;51.166;10.322;2023-03-03T09:27:34;98098.13;;;-1.28;76.95
26865;BME280;40618;51.166;10.322;2023-03-03T09:30:26;98095.72;;;-1.24;77.03
26865;BME280;40618;51.166;10.322;2023-03-03T09:33:01;98092.50;;;-1.16;77.10
26865;BME280;40618;51.166;10.322;2023-03-03T09:35:40;98105.38;;;-1.10;77.23
26865;BME280;40618;51.166;10.322;2023-03-03T09:38:28;98102.13;;;-1.05;77.08
26865;BME280;40618;51.166;10.322;2023-03-03T09:47:01;98105.53;;;-1.04;77.10
26865;BME280;40618;51.166;10.322;2023-03-03T09:49:35;98110.78;;;-0.98;77.26
26865;BME280;40618;51.166;10.322;2023-03-03T10:01:02;98112.91;;;-0.81;77.28
26865;BME280;40618;51.166;10.322;2023-03-03T10:06:44;98102.88;;;-1.09;76.76
26865;BME280;40618;51.166;10.322;2023-03-03T10:16:01;98105.81;;;-0.93;76.98
26865;BME280;40618;51.166;10.322;2023-03-03T10:21:23;98103.44;;;-0.87;77.13
26865;BME280;40618;51.166;10.322;2023-03-03T10:24:29;98111.25;;;-0.79;77.03
26865;BME280;40618;51.166;10.322;2023-03-03T10:27:40;98114.38;;;-0.90;76.67
26865;BME280;40618;51.166;10.322;2023-03-03T10:30:16;98110.78;;;-0.98;76.66
26865;BME280;40618;51.166;10.322;2023-03-03T10:47:42;98102.41;;;-0.60;77.17
26865;BME280;40618;51.166;10.322;2023-03-03T11:02:00;98121.69;;;-0.69;76.90
26865;BME280;40618;51.166;10.322;2023-03-03T11:07:28;98126.13;;;-0.61;76.73
26865;BME280;40618;51.166;10.322;2023-03-03T11:21:50;98108.41;;;-0.58;77.02
26865;BME280;40618;51.166;10.322;2023-03-03T11:29:58;98090.13;;;-0.42;76.70
26865;BME280;40618;51.166;10.322;2023-03-03T11:35:22;98093.75;;;-0.32;76.72
26865;BME280;40618;51.166;10.322;2023-03-03T11:38:18;98094.69;;;-0.28;76.75
26865;BME280;40618;51.166;10.322;2023-03-03T11:44:29;98094.75;;;-0.25;76.37
26865;BME280;40618;51.166;10.322;2023-03-03T11:46:57;98099.00;;;-0.26;76.24
26865;BME280;40618;51.166;10.322;2023-03-03T11:49:35;98092.19;;;-0.27;76.60
26865;BME280;40618;51.166;10.322;2023-03-03T11:52:45;98092.44;;;-0.16;76.62
26865;BME280;40618;51.166;10.322;2023-03-03T11:55:20;98086.38;;;-0.21;76.52
26865;BME280;40618;51.166;10.322;2023-03-03T12:00:42;98088.81;;;-0.26;76.62
26865;BME280;40618;51.166;10.322;2023-03-03T12:06:46;98083.75;;;-0.24;76.58
26865;BME280;40618;51.166;10.322;2023-03-03T12:09:16;98083.88;;;-0.18;76.55
26865;BME280;40618;51.166;10.322;2023-03-03T12:18:45;98088.56;;;0.02;76.25
26865;BME280;40618;51.166;10.322;2023-03-03T12:39:06;98066.59;;;0.07;76.47
26865;BME280;40618;51.166;10.322;2023-03-03T12:41:53;98056.41;;;0.07;76.50
26865;BME280;40618;51.166;10.322;2023-03-03T12:44:37;98056.59;;;0.16;76.72
26865;BME280;40618;51.166;10.322;2023-03-03T12:56:17;98052.13;;;0.45;76.89
26865;BME280;40618;51.166;10.322;2023-03-03T12:59:04;98047.28;;;0.59;76.84
26865;BME280;40618;51.166;10.322;2023-03-03T13:05:15;98045.84;;;0.74;76.45
26865;BME280;40618;51.166;10.322;2023-03-03T13:10:26;98036.63;;;0.82;76.27
26865;BME280;40618;51.166;10.322;2023-03-03T13:13:26;98038.47;;;0.88;76.88
26865;BME280;40618;51.166;10.322;2023-03-03T13:16:13;98036.81;;;0.91;76.73
26865;BME280;40618;51.166;10.322;2023-03-03T13:18:48;98027.50;;;0.93;76.58
26865;BME280;40618;51.166;10.322;2023-03-03T13:21:25;98038.59;;;0.97;76.55
26865;BME280;40618;51.166;10.322;2023-03-03T13:24:15;98034.44;;;1.00;76.14
26865;BME280;40618;51.166;10.322;2023-03-03T13:26:57;98034.34;;;0.96;76.03
26865;BME280;40618;51.166;10.322;2023-03-03T13:29:35;98035.16;;;0.93;76.33
26865;BME280;40618;51.166;10.322;2023-03-03T13:37:47;98031.03;;;1.00;76.11
26865;BME280;40618;51.166;10.322;2023-03-03T13:40:37;98027.69;;;1.04;76.04
26865;BME280;40618;51.166;10.322;2023-03-03T13:43:17;98027.72;;;1.06;76.48
26865;BME280;40618;51.166;10.322;2023-03-03T13:46:26;98024.44;;;1.14;75.94
26865;BME280;40618;51.166;10.322;2023-03-03T13:49:18;98032.28;;;1.25;76.75
26865;BME280;40618;51.166;10.322;2023-03-03T13:52:01;98023.81;;;1.26;76.36
26865;BME280;40618;51.166;10.322;2023-03-03T14:00:29;98034.88;;;1.28;76.19
26865;BME280;40618;51.166;10.322;2023-03-03T14:05:55;98026.31;;;1.23;75.78
26865;BME280;40618;51.166;10.322;2023-03-03T14:11:51;98014.63;;;1.38;76.42
26865;BME280;40618;51.166;10.322;2023-03-03T14:14:39;98012.97;;;1.40;76.60
26865;BME280;40618;51.166;10.322;2023-03-03T14:22:51;98004.56;;;1.47;76.39
26865;BME280;40618;51.166;10.322;2023-03-03T14:25:19;98004.53;;;1.44;76.14
26865;BME280;40618;51.166;10.322;2023-03-03T14:30:30;98001.16;;;1.46;76.28
26865;BME280;40618;51.166;10.322;2023-03-03T14:35:59;98005.31;;;1.41;75.49
26865;BME280;40618;51.166;10.322;2023-03-03T14:41:11;98004.44;;;1.39;75.53
26865;BME280;40618;51.166;10.322;2023-03-03T14:43:45;97994.31;;;1.45;76.19
26865;BME280;40618;51.166;10.322;2023-03-03T14:48:59;97983.28;;;1.46;75.73
26865;BME280;40618;51.166;10.322;2023-03-03T14:51:39;97973.13;;;1.49;75.57
26865;BME280;40618;51.166;10.322;2023-03-03T14:54:25;97978.28;;;1.56;75.30
26865;BME280;40618;51.166;10.322;2023-03-03T14:59:39;97970.88;;;1.73;75.86
26865;BME280;40618;51.166;10.322;2023-03-03T15:02:29;97971.72;;;1.73;76.00
26865;BME280;40618;51.166;10.322;2023-03-03T15:05:31;97976.97;;;1.82;75.52
26865;BME280;40618;51.166;10.322;2023-03-03T15:08:08;97973.59;;;1.85;75.82
26865;BME280;40618;51.166;10.322;2023-03-03T15:10:44;97971.84;;;1.81;76.22
26865;BME280;40618;51.166;10.322;2023-03-03T15:18:31;97969.38;;;1.89;75.94
26865;BME280;40618;51.166;10.322;2023-03-03T15:21:07;97970.25;;;1.89;75.98
26865;BME280;40618;51.166;10.322;2023-03-03T15:26:13;97971.75;;;1.76;75.53
26865;BME280;40618;51.166;10.322;2023-03-03T15:29:01;97963.22;;;1.73;75.77
26865;BME280;40618;51.166;10.322;2023-03-03T15:40:29;97956.97;;;1.50;75.38
26865;BME280;40618;51.166;10.322;2023-03-03T15:46:20;97945.03;;;1.48;75.66
26865;BME280;40618;51.166;10.322;2023-03-03T15:49:03;97947.59;;;1.49;75.37
26865;BME280;40618;51.166;10.322;2023-03-03T15:51:42;97949.31;;;1.50;75.43
26865;BME280;40618;51.166;10.322;2023-03-03T16:02:58;97955.09;;;1.39;75.66
26865;BME280;40618;51.166;10.322;2023-03-03T16:05:35;97954.19;;;1.37;75.35
26865;BME280;40618;51.166;10.322;2023-03-03T16:08:16;97951.53;;;1.27;75.42
26865;BME280;40618;51.166;10.322;2023-03-03T16:11:14;97957.38;;;1.22;75.86
26865;BME280;40618;51.166;10.322;2023-03-03T16:14:22;97959.09;;;1.23;75.64
26865;BME280;40618;51.166;10.322;2023-03-03T16:22:27;97956.41;;;1.13;75.48
26865;BME280;40618;51.166;10.322;2023-03-03T16:28:14;97974.19;;;1.09;75.52
26865;BME280;40618;51.166;10.322;2023-03-03T16:31:11;97968.16;;;1.04;75.79
26865;BME280;40618;51.166;10.322;2023-03-03T16:34:19;97969.66;;;0.91;75.54
26865;BME280;40618;51.166;10.322;2023-03-03T16:42:47;97980.47;;;0.76;75.45
26865;BME280;40618;51.166;10.322;2023-03-03T16:45:33;97983.72;;;0.67;75.48
26865;BME280;40618;51.166;10.322;2023-03-03T16:48:25;97978.53;;;0.64;75.95
26865;BME280;40618;51.166;10.322;2023-03-03T16:57:30;97995.44;;;0.59;75.85
26865;BME280;40618;51.166;10.322;2023-03-03T17:02:58;98003.63;;;0.42;75.96
26865;BME280;40618;51.166;10.322;2023-03-03T17:05:55;98000.25;;;0.43;76.04
26865;BME280;40618;51.166;10.322;2023-03-03T17:08:43;98005.34;;;0.42;75.71
26865;BME280;40618;51.166;10.322;2023-03-03T17:14:30;98004.31;;;0.33;75.97
26865;BME280;40618;51.166;10.322;2023-03-03T17:20:31;98000.03;;;0.31;76.08
26865;BME280;40618;51.166;10.322;2023-03-03T17:27:12;98006.94;;;0.38;75.79
26865;BME280;40618;51.166;10.322;2023-03-03T17:40:35;98018.97;;;0.03;76.31
26865;BME280;40618;51.166;10.322;2023-03-03T17:43:30;98013.84;;;0.01;76.19
26865;BME280;40618;51.166;10.322;2023-03-03T17:46:09;98019.88;;;0.05;75.98
26865;BME280;40618;51.166;10.322;2023-03-03T18:17:34;98027.19;;;0.29;76.87